createdAt,value
2018-03-31T00:00:05.375Z,11.94
2018-03-31T00:02:33.346Z,11.90
2018-03-31T00:05:01.275Z,11.86
2018-03-31T00:07:29.280Z,11.85
2018-03-31T00:09:57.241Z,11.82
2018-03-31T00:12:25.210Z,11.79
2018-03-31T00:14:53.162Z,11.73
2018-03-31T00:17:21.098Z,11.73
2018-03-31T00:19:49.109Z,11.69
2018-03-31T00:22:22.591Z,11.70
2018-03-31T00:24:50.567Z,11.64
2018-03-31T00:27:18.549Z,11.68
2018-03-31T00:29:46.517Z,11.68
2018-03-31T00:32:14.473Z,11.66
2018-03-31T00:34:42.430Z,11.62
2018-03-31T00:37:10.402Z,11.65
2018-03-31T00:39:38.363Z,11.64
2018-03-31T00:42:06.298Z,11.58
2018-03-31T00:44:34.281Z,11.62
2018-03-31T00:47:02.210Z,11.58
2018-03-31T00:49:30.222Z,11.53
2018-03-31T00:51:58.167Z,11.49
2018-03-31T00:54:26.118Z,11.52
2018-03-31T00:56:54.118Z,11.51
2018-03-31T00:59:22.042Z,11.53
2018-03-31T01:01:50.014Z,11.46
2018-03-31T01:04:18.007Z,11.45
2018-03-31T01:06:45.991Z,11.41
2018-03-31T01:09:13.930Z,11.38
2018-03-31T01:11:41.858Z,11.37
2018-03-31T01:14:09.836Z,11.32
2018-03-31T01:16:37.834Z,11.26
2018-03-31T01:19:05.790Z,11.28
2018-03-31T01:21:33.797Z,11.27
2018-03-31T01:24:01.770Z,11.17
2018-03-31T01:26:29.763Z,11.15
2018-03-31T01:28:57.754Z,11.12
2018-03-31T01:31:25.753Z,11.00
2018-03-31T01:33:53.760Z,10.96
2018-03-31T01:36:21.708Z,10.82
2018-03-31T01:38:49.670Z,10.62
2018-03-31T01:41:17.689Z,10.54
2018-03-31T01:43:45.702Z,10.40
2018-03-31T01:46:13.678Z,10.21
2018-03-31T01:48:41.639Z,10.35
2018-03-31T01:51:09.622Z,10.40
2018-03-31T01:53:37.614Z,10.33
2018-03-31T01:56:05.610Z,10.36
2018-03-31T01:58:33.553Z,10.40
2018-03-31T02:01:01.534Z,10.50
2018-03-31T02:03:29.494Z,10.56
2018-03-31T02:05:57.493Z,10.62
2018-03-31T02:08:25.478Z,10.62
2018-03-31T02:10:53.482Z,10.61
2018-03-31T02:13:21.434Z,10.58
2018-03-31T02:15:49.452Z,10.56
2018-03-31T02:18:17.401Z,10.55
2018-03-31T02:20:45.379Z,10.52
2018-03-31T02:23:13.379Z,10.42
2018-03-31T02:25:41.350Z,10.46
2018-03-31T02:28:09.354Z,10.42
2018-03-31T02:30:37.333Z,10.36
2018-03-31T02:33:05.308Z,10.30
2018-03-31T02:35:33.278Z,10.28
2018-03-31T02:38:01.270Z,10.20
2018-03-31T02:40:29.199Z,10.12
2018-03-31T02:42:57.145Z,10.07
2018-03-31T02:45:25.118Z,10.06
2018-03-31T02:47:53.071Z,10.05
2018-03-31T02:50:21.045Z,10.04
2018-03-31T02:52:49.016Z,10.02
2018-03-31T02:55:16.999Z,10.01
2018-03-31T02:57:44.990Z,10.01
2018-03-31T03:00:13.558Z,9.99
2018-03-31T03:02:41.466Z,9.98
2018-03-31T03:05:09.374Z,9.95
2018-03-31T03:07:37.335Z,9.94
2018-03-31T03:10:05.262Z,9.94
2018-03-31T03:12:33.222Z,9.94
2018-03-31T03:15:01.157Z,9.96
2018-03-31T03:17:28.830Z,9.96
2018-03-31T03:19:56.493Z,9.95
2018-03-31T03:22:24.136Z,9.94
2018-03-31T03:24:51.808Z,9.94
2018-03-31T03:27:19.450Z,9.93
2018-03-31T03:29:47.113Z,9.93
2018-03-31T03:32:14.737Z,9.94
2018-03-31T03:34:42.407Z,9.92
2018-03-31T03:37:10.089Z,9.91
2018-03-31T03:39:37.736Z,9.86
2018-03-31T03:42:05.402Z,9.86
2018-03-31T03:44:33.065Z,9.85
2018-03-31T03:47:00.731Z,9.88
2018-03-31T03:49:28.359Z,9.83
2018-03-31T03:51:55.996Z,9.84
2018-03-31T03:54:23.671Z,9.85
2018-03-31T03:56:51.341Z,9.83
2018-03-31T03:59:18.982Z,9.76
2018-03-31T04:01:46.646Z,9.82
2018-03-31T04:04:14.306Z,9.85
2018-03-31T04:06:41.938Z,9.89
2018-03-31T04:09:09.606Z,9.91
2018-03-31T04:11:37.239Z,9.91
2018-03-31T04:14:04.902Z,9.90
2018-03-31T04:16:32.540Z,9.85
2018-03-31T04:19:00.221Z,9.81
2018-03-31T04:21:27.894Z,9.73
2018-03-31T04:23:55.526Z,9.68
2018-03-31T04:26:23.214Z,9.60
2018-03-31T04:28:50.845Z,9.60
2018-03-31T04:31:18.474Z,9.55
2018-03-31T04:33:46.142Z,9.54
2018-03-31T04:36:13.810Z,9.53
2018-03-31T04:38:41.474Z,9.56
2018-03-31T04:41:09.102Z,9.61
2018-03-31T04:43:36.810Z,9.59
2018-03-31T04:46:04.482Z,9.63
2018-03-31T04:48:32.113Z,9.73
2018-03-31T04:50:59.761Z,9.73
2018-03-31T04:53:27.445Z,9.86
2018-03-31T04:55:55.111Z,9.94
2018-03-31T04:58:22.778Z,10.01
2018-03-31T05:00:50.413Z,10.08
2018-03-31T05:03:18.120Z,10.15
2018-03-31T05:05:45.822Z,10.21
2018-03-31T05:08:13.462Z,10.29
2018-03-31T05:10:41.134Z,10.37
2018-03-31T05:13:08.827Z,10.52
2018-03-31T05:15:36.487Z,10.76
2018-03-31T05:18:04.162Z,10.92
2018-03-31T05:20:31.802Z,11.02
2018-03-31T05:22:59.474Z,11.08
2018-03-31T05:25:27.154Z,11.22
2018-03-31T05:27:54.858Z,11.22
2018-03-31T05:30:22.499Z,11.38
2018-03-31T05:32:50.130Z,11.48
2018-03-31T05:35:17.812Z,11.58
2018-03-31T05:37:45.443Z,11.73
2018-03-31T05:40:13.158Z,11.91
2018-03-31T05:42:40.794Z,12.04
2018-03-31T05:45:08.487Z,12.11
2018-03-31T05:47:36.123Z,12.08
2018-03-31T05:50:03.762Z,12.23
2018-03-31T05:52:31.435Z,12.31
2018-03-31T05:54:59.101Z,12.27
2018-03-31T05:57:26.737Z,12.41
2018-03-31T05:59:54.419Z,12.42
2018-03-31T06:02:22.061Z,12.39
2018-03-31T06:04:49.764Z,12.34
2018-03-31T06:07:17.397Z,12.43
2018-03-31T06:09:45.034Z,12.55
2018-03-31T06:12:12.821Z,12.57
2018-03-31T06:14:40.480Z,12.66
2018-03-31T06:17:08.223Z,12.74
2018-03-31T06:19:35.942Z,12.65
2018-03-31T06:22:03.575Z,12.65
2018-03-31T06:24:31.214Z,12.69
2018-03-31T06:26:58.899Z,12.72
2018-03-31T06:29:26.570Z,12.76
2018-03-31T06:31:54.225Z,12.78
2018-03-31T06:34:21.898Z,12.85
2018-03-31T06:36:49.765Z,12.83
2018-03-31T06:39:17.528Z,12.79
2018-03-31T06:41:45.178Z,12.77
2018-03-31T06:44:12.839Z,12.78
2018-03-31T06:46:40.613Z,12.82
2018-03-31T06:49:08.282Z,12.74
2018-03-31T06:51:36.096Z,12.76
2018-03-31T06:54:03.814Z,12.79
2018-03-31T06:56:31.538Z,12.84
2018-03-31T06:58:59.240Z,12.91
2018-03-31T07:01:27.007Z,12.95
2018-03-31T07:03:54.770Z,13.01
2018-03-31T07:06:22.402Z,13.07
2018-03-31T07:08:50.117Z,13.06
2018-03-31T07:11:17.756Z,13.09
2018-03-31T07:13:45.526Z,13.09
2018-03-31T07:16:13.203Z,13.07
2018-03-31T07:18:40.842Z,13.04
2018-03-31T07:21:08.518Z,13.14
2018-03-31T07:23:36.190Z,13.19
2018-03-31T07:26:03.862Z,13.27
2018-03-31T07:28:31.498Z,13.24
2018-03-31T07:30:59.172Z,13.29
2018-03-31T07:33:26.936Z,13.50
2018-03-31T07:35:54.694Z,13.43
2018-03-31T07:38:22.459Z,13.53
2018-03-31T07:40:50.236Z,13.64
2018-03-31T07:43:17.915Z,13.84
2018-03-31T07:45:45.655Z,13.97
2018-03-31T07:48:13.590Z,14.17
2018-03-31T07:50:41.505Z,14.18
2018-03-31T07:53:09.195Z,14.27
2018-03-31T07:55:37.038Z,14.27
2018-03-31T07:58:04.692Z,14.34
2018-03-31T08:00:32.463Z,14.59
2018-03-31T08:03:00.119Z,14.86
2018-03-31T08:05:27.808Z,15.00
2018-03-31T08:07:55.485Z,15.29
2018-03-31T08:10:23.137Z,15.15
2018-03-31T08:12:50.888Z,15.29
2018-03-31T08:15:18.648Z,15.55
2018-03-31T08:17:46.420Z,15.75
2018-03-31T08:20:14.123Z,15.86
2018-03-31T08:22:41.843Z,16.02
2018-03-31T08:25:09.507Z,16.24
2018-03-31T08:27:37.267Z,16.30
2018-03-31T08:30:05.038Z,16.34
2018-03-31T08:32:32.809Z,16.42
2018-03-31T08:35:00.470Z,16.62
2018-03-31T08:37:28.237Z,16.69
2018-03-31T08:39:55.999Z,16.65
2018-03-31T08:42:23.674Z,16.96
2018-03-31T08:44:51.332Z,17.12
2018-03-31T08:47:18.986Z,17.25
2018-03-31T08:49:46.659Z,17.41
2018-03-31T08:52:14.419Z,17.48
2018-03-31T08:54:42.094Z,17.51
2018-03-31T08:57:09.729Z,17.51
2018-03-31T08:59:37.620Z,17.62
2018-03-31T09:02:05.489Z,17.64
2018-03-31T09:04:33.349Z,17.44
2018-03-31T09:07:01.002Z,17.53
2018-03-31T09:09:28.771Z,17.61
2018-03-31T09:11:56.651Z,17.80
2018-03-31T09:14:24.320Z,17.80
2018-03-31T09:16:51.972Z,17.43
2018-03-31T09:19:19.803Z,17.52
2018-03-31T09:21:47.499Z,17.68
2018-03-31T09:24:15.180Z,17.60
2018-03-31T09:26:42.941Z,17.69
2018-03-31T09:29:10.806Z,17.57
2018-03-31T09:31:38.467Z,17.61
2018-03-31T09:34:06.236Z,17.63
2018-03-31T09:36:34.091Z,17.55
2018-03-31T09:39:01.836Z,17.58
2018-03-31T09:41:29.519Z,17.59
2018-03-31T09:43:57.286Z,17.63
2018-03-31T09:46:25.061Z,17.63
2018-03-31T09:48:52.718Z,17.50
2018-03-31T09:51:20.488Z,17.12
2018-03-31T09:53:48.138Z,17.26
2018-03-31T09:56:15.815Z,17.28
2018-03-31T09:58:43.585Z,17.29
2018-03-31T10:01:11.244Z,17.30
2018-03-31T10:03:38.914Z,17.24
2018-03-31T10:06:06.673Z,17.38
2018-03-31T10:08:34.314Z,17.49
2018-03-31T10:11:02.104Z,17.46
2018-03-31T10:13:29.858Z,17.37
2018-03-31T10:15:57.542Z,17.54
2018-03-31T10:18:25.400Z,17.64
2018-03-31T10:20:53.164Z,17.69
2018-03-31T10:23:21.035Z,17.61
2018-03-31T10:25:48.747Z,17.72
2018-03-31T10:28:16.462Z,17.71
2018-03-31T10:30:44.110Z,17.68
2018-03-31T10:33:11.896Z,17.42
2018-03-31T10:35:39.535Z,17.67
2018-03-31T10:38:07.428Z,17.90
2018-03-31T10:40:35.171Z,18.08
2018-03-31T10:43:02.963Z,18.19
2018-03-31T10:45:30.718Z,17.92
2018-03-31T10:47:58.418Z,18.06
2018-03-31T10:50:26.176Z,18.11
2018-03-31T10:52:54.025Z,18.31
2018-03-31T10:55:21.684Z,18.29
2018-03-31T10:57:49.318Z,18.30
2018-03-31T11:00:17.119Z,18.24
2018-03-31T11:02:44.983Z,18.21
2018-03-31T11:05:12.753Z,18.19
2018-03-31T11:07:40.607Z,18.07
2018-03-31T11:10:08.280Z,17.72
2018-03-31T11:12:36.109Z,17.45
2018-03-31T11:15:03.802Z,17.59
2018-03-31T11:17:31.474Z,17.71
2018-03-31T11:19:59.308Z,17.59
2018-03-31T11:22:26.998Z,17.52
2018-03-31T11:24:54.841Z,17.53
2018-03-31T11:27:22.540Z,17.41
2018-03-31T11:29:50.226Z,17.30
2018-03-31T11:32:17.883Z,17.25
2018-03-31T11:34:45.631Z,17.30
2018-03-31T11:37:13.315Z,17.28
2018-03-31T11:39:41.042Z,17.29
2018-03-31T11:42:08.714Z,17.31
2018-03-31T11:44:36.381Z,17.16
2018-03-31T11:47:04.152Z,17.22
2018-03-31T11:49:31.913Z,17.09
2018-03-31T11:51:59.682Z,17.24
2018-03-31T11:54:27.326Z,17.16
2018-03-31T11:56:55.054Z,17.13
2018-03-31T11:59:22.772Z,17.11
2018-03-31T12:01:50.540Z,17.13
2018-03-31T12:04:18.407Z,16.93
2018-03-31T12:06:46.376Z,16.99
2018-03-31T12:09:14.031Z,16.90
2018-03-31T12:11:41.828Z,16.88
2018-03-31T12:14:09.668Z,16.80
2018-03-31T12:16:37.411Z,16.67
2018-03-31T12:19:05.211Z,16.86
2018-03-31T12:21:32.922Z,16.90
2018-03-31T12:24:00.614Z,16.90
2018-03-31T12:26:28.501Z,16.90
2018-03-31T12:28:56.181Z,16.94
2018-03-31T12:31:24.032Z,17.01
2018-03-31T12:33:51.691Z,17.01
2018-03-31T12:36:19.463Z,17.07
2018-03-31T12:38:47.124Z,17.16
2018-03-31T12:41:14.982Z,17.19
2018-03-31T12:43:42.657Z,17.32
2018-03-31T12:46:10.414Z,17.40
2018-03-31T12:48:38.050Z,17.36
2018-03-31T12:51:05.948Z,17.31
2018-03-31T12:53:33.582Z,17.39
2018-03-31T12:56:01.482Z,17.37
2018-03-31T12:58:29.315Z,17.35
2018-03-31T13:00:57.117Z,17.30
2018-03-31T13:03:24.810Z,17.36
2018-03-31T13:05:52.445Z,17.47
2018-03-31T13:08:20.207Z,17.57
2018-03-31T13:10:47.980Z,17.51
2018-03-31T13:13:15.754Z,17.63
2018-03-31T13:15:43.506Z,17.71
2018-03-31T13:18:11.266Z,17.76
2018-03-31T13:20:38.894Z,17.75
2018-03-31T13:23:06.558Z,17.80
2018-03-31T13:25:34.241Z,17.86
2018-03-31T13:28:02.023Z,18.00
2018-03-31T13:30:29.654Z,18.17
2018-03-31T13:32:57.375Z,18.35
2018-03-31T13:35:25.118Z,18.55
2018-03-31T13:37:52.887Z,18.70
2018-03-31T13:40:20.530Z,18.69
2018-03-31T13:42:48.315Z,18.72
2018-03-31T13:45:16.081Z,18.52
2018-03-31T13:47:43.840Z,18.52
2018-03-31T13:50:11.530Z,18.50
2018-03-31T13:52:39.198Z,18.46
2018-03-31T13:55:06.929Z,18.35
2018-03-31T13:57:34.758Z,18.36
2018-03-31T14:00:02.390Z,18.35
2018-03-31T14:02:30.152Z,18.38
2018-03-31T14:04:57.786Z,18.33
2018-03-31T14:07:25.453Z,18.32
2018-03-31T14:09:53.191Z,18.30
2018-03-31T14:12:20.867Z,18.28
2018-03-31T14:14:48.545Z,18.21
2018-03-31T14:17:16.215Z,18.20
2018-03-31T14:19:43.868Z,18.26
2018-03-31T14:22:11.630Z,18.31
2018-03-31T14:24:39.282Z,18.25
2018-03-31T14:27:07.062Z,18.29
2018-03-31T14:29:34.755Z,18.26
2018-03-31T14:32:02.492Z,18.28
2018-03-31T14:34:30.250Z,18.34
2018-03-31T14:36:57.918Z,18.35
2018-03-31T14:39:25.688Z,18.37
2018-03-31T14:41:53.467Z,18.40
2018-03-31T14:44:21.098Z,18.34
2018-03-31T14:46:48.876Z,18.26
2018-03-31T14:49:16.545Z,18.26
2018-03-31T14:51:44.210Z,18.21
2018-03-31T14:54:11.880Z,18.27
2018-03-31T14:56:39.514Z,18.11
2018-03-31T14:59:07.298Z,18.17
2018-03-31T15:01:34.961Z,18.21
2018-03-31T15:04:02.632Z,18.17
2018-03-31T15:06:30.320Z,18.11
2018-03-31T15:08:57.969Z,18.13
2018-03-31T15:11:25.657Z,18.11
2018-03-31T15:13:53.334Z,18.11
2018-03-31T15:16:21.049Z,18.09
2018-03-31T15:18:48.678Z,18.10
2018-03-31T15:21:16.345Z,18.00
2018-03-31T15:23:44.015Z,18.01
2018-03-31T15:26:11.698Z,18.01
2018-03-31T15:28:39.383Z,18.07
2018-03-31T15:31:07.005Z,18.02
2018-03-31T15:33:34.678Z,17.99
2018-03-31T15:36:02.352Z,18.05
2018-03-31T15:38:30.882Z,17.99
2018-03-31T15:40:58.550Z,17.96
2018-03-31T15:43:26.218Z,17.95
2018-03-31T15:45:53.884Z,17.92
2018-03-31T15:48:21.518Z,17.84
2018-03-31T15:50:49.198Z,17.88
2018-03-31T15:53:16.834Z,17.88
2018-03-31T15:55:44.471Z,17.84
2018-03-31T15:58:12.145Z,17.84
2018-03-31T16:00:39.781Z,17.80
2018-03-31T16:03:07.450Z,17.76
2018-03-31T16:05:35.078Z,17.72
2018-03-31T16:08:02.758Z,17.64
2018-03-31T16:10:30.390Z,17.56
2018-03-31T16:12:58.025Z,17.50
2018-03-31T16:15:25.694Z,17.39
2018-03-31T16:17:53.361Z,17.23
2018-03-31T16:20:21.026Z,17.23
2018-03-31T16:22:48.681Z,17.16
2018-03-31T16:25:16.350Z,17.08
2018-03-31T16:27:43.990Z,17.01
2018-03-31T16:30:11.658Z,16.91
2018-03-31T16:32:39.325Z,16.85
2018-03-31T16:35:07.000Z,16.75
2018-03-31T16:37:34.668Z,16.57
2018-03-31T16:40:02.334Z,16.48
2018-03-31T16:42:30.018Z,16.42
2018-03-31T16:44:57.686Z,16.28
2018-03-31T16:47:25.350Z,16.21
2018-03-31T16:49:53.026Z,16.17
2018-03-31T16:52:20.673Z,15.93
2018-03-31T16:54:48.362Z,15.97
2018-03-31T16:57:15.998Z,15.85
2018-03-31T16:59:43.674Z,15.81
2018-03-31T17:02:11.305Z,15.62
2018-03-31T17:04:38.948Z,15.69
2018-03-31T17:07:06.626Z,15.61
2018-03-31T17:09:34.254Z,15.61
2018-03-31T17:12:01.886Z,15.59
2018-03-31T17:14:29.563Z,15.51
2018-03-31T17:16:57.291Z,15.49
2018-03-31T17:19:24.926Z,15.53
2018-03-31T17:21:52.607Z,15.45
2018-03-31T17:24:20.243Z,15.45
2018-03-31T17:26:47.918Z,15.37
2018-03-31T17:29:15.550Z,15.26
2018-03-31T17:31:43.183Z,15.24
2018-03-31T17:34:10.862Z,15.22
2018-03-31T17:36:38.562Z,15.21
2018-03-31T17:39:06.237Z,14.99
2018-03-31T17:41:33.867Z,14.98
2018-03-31T17:44:01.533Z,15.01
2018-03-31T17:46:29.167Z,15.01
2018-03-31T17:48:56.802Z,15.02
2018-03-31T17:51:24.473Z,14.92
2018-03-31T17:53:52.152Z,14.90
2018-03-31T17:56:19.788Z,14.80
2018-03-31T17:58:47.468Z,14.67
2018-03-31T18:01:15.123Z,14.57
2018-03-31T18:03:42.805Z,14.49
2018-03-31T18:06:10.485Z,14.43
2018-03-31T18:08:38.122Z,14.38
2018-03-31T18:11:05.794Z,14.43
2018-03-31T18:13:33.462Z,14.45
2018-03-31T18:16:01.108Z,14.39
2018-03-31T18:18:28.802Z,14.37
2018-03-31T18:20:56.430Z,14.38
2018-03-31T18:23:24.070Z,14.36
2018-03-31T18:25:51.742Z,14.27
2018-03-31T18:28:19.408Z,14.26
2018-03-31T18:30:47.042Z,14.26
2018-03-31T18:33:14.732Z,14.08
2018-03-31T18:35:42.369Z,14.13
2018-03-31T18:38:10.034Z,14.13
2018-03-31T18:40:37.662Z,14.06
2018-03-31T18:43:05.299Z,14.08
2018-03-31T18:45:32.976Z,14.05
2018-03-31T18:48:00.624Z,14.06
2018-03-31T18:50:28.295Z,14.00
2018-03-31T18:52:55.934Z,13.93
2018-03-31T18:55:23.614Z,13.99
2018-03-31T18:57:51.250Z,14.01
2018-03-31T19:00:18.880Z,14.01
2018-03-31T19:02:46.557Z,13.98
2018-03-31T19:05:14.230Z,13.99
2018-03-31T19:07:41.863Z,13.99
2018-03-31T19:10:09.536Z,13.97
2018-03-31T19:12:37.206Z,14.00
2018-03-31T19:15:04.837Z,14.06
2018-03-31T19:17:32.565Z,14.10
2018-03-31T19:20:00.194Z,14.07
2018-03-31T19:22:27.822Z,14.04
2018-03-31T19:25:00.910Z,14.01
2018-03-31T19:27:28.597Z,14.04
2018-03-31T19:29:56.252Z,14.07
2018-03-31T19:32:23.917Z,14.15
2018-03-31T19:34:51.547Z,14.14
2018-03-31T19:37:19.222Z,14.16
2018-03-31T19:39:50.776Z,14.06
2018-03-31T19:42:18.459Z,14.02
2018-03-31T19:44:46.702Z,14.06
2018-03-31T19:47:14.374Z,14.01
2018-03-31T19:49:42.006Z,13.93
2018-03-31T19:52:09.638Z,13.89
2018-03-31T19:54:37.306Z,13.91
2018-03-31T19:57:04.974Z,13.88
2018-03-31T19:59:32.611Z,13.75
2018-03-31T20:02:00.380Z,13.70
2018-03-31T20:04:28.043Z,13.72
2018-03-31T20:06:55.678Z,13.65
2018-03-31T20:09:23.393Z,13.56
2018-03-31T20:11:51.064Z,13.60
2018-03-31T20:14:18.737Z,13.68
2018-03-31T20:16:46.371Z,13.57
2018-03-31T20:19:14.046Z,13.47
2018-03-31T20:21:41.684Z,13.55
2018-03-31T20:24:09.322Z,13.54
2018-03-31T20:26:37.005Z,13.52
2018-03-31T20:29:04.674Z,13.41
2018-03-31T20:31:32.342Z,13.29
2018-03-31T20:33:59.973Z,13.29
2018-03-31T20:36:27.642Z,13.37
2018-03-31T20:38:55.319Z,13.27
2018-03-31T20:41:22.948Z,13.18
2018-03-31T20:43:50.613Z,13.23
2018-03-31T20:46:18.292Z,13.21
2018-03-31T20:48:45.966Z,13.19
2018-03-31T20:51:13.666Z,13.22
2018-03-31T20:53:41.307Z,13.16
2018-03-31T20:56:08.991Z,13.17
2018-03-31T20:58:36.630Z,13.22
2018-03-31T21:01:04.267Z,13.24
2018-03-31T21:03:31.931Z,13.17
2018-03-31T21:05:59.568Z,13.14
2018-03-31T21:08:27.202Z,13.14
2018-03-31T21:10:54.835Z,13.15
2018-03-31T21:13:22.503Z,13.02
2018-03-31T21:15:50.206Z,12.94
2018-03-31T21:18:17.851Z,13.03
2018-03-31T21:20:45.526Z,13.02
2018-03-31T21:23:13.208Z,13.03
2018-03-31T21:25:40.842Z,12.95
2018-03-31T21:28:08.509Z,12.99
2018-03-31T21:30:36.178Z,12.96
2018-03-31T21:33:03.843Z,13.03
2018-03-31T21:35:31.548Z,13.05
2018-03-31T21:37:59.242Z,13.00
2018-03-31T21:40:26.910Z,12.93
2018-03-31T21:42:54.541Z,12.98
2018-03-31T21:45:22.217Z,12.73
2018-03-31T21:47:49.851Z,12.77
2018-03-31T21:50:17.523Z,12.79
2018-03-31T21:52:45.166Z,12.73
2018-03-31T21:55:12.838Z,12.77
2018-03-31T21:57:40.484Z,12.71
2018-03-31T22:00:08.162Z,12.63
2018-03-31T22:02:35.791Z,12.66
2018-03-31T22:05:03.476Z,12.68
2018-03-31T22:07:31.150Z,12.64
2018-03-31T22:09:58.818Z,12.65
2018-03-31T22:12:26.479Z,12.63
2018-03-31T22:14:59.561Z,12.59
2018-03-31T22:17:27.190Z,12.47
2018-03-31T22:19:54.870Z,12.47
2018-03-31T22:22:22.512Z,12.34
2018-03-31T22:24:50.142Z,12.21
2018-03-31T22:27:17.822Z,12.13
2018-03-31T22:29:45.463Z,12.14
2018-03-31T22:32:13.106Z,12.18
2018-03-31T22:34:40.776Z,12.06
2018-03-31T22:37:08.405Z,12.15
2018-03-31T22:39:36.070Z,12.05
2018-03-31T22:42:03.749Z,12.03
2018-03-31T22:44:31.377Z,12.16
2018-03-31T22:46:59.052Z,12.17
2018-03-31T22:49:26.677Z,12.14
2018-03-31T22:51:54.322Z,12.13
2018-03-31T22:54:21.990Z,12.23
2018-03-31T22:56:49.609Z,12.14
2018-03-31T22:59:17.270Z,12.17
2018-03-31T23:01:44.904Z,12.15
2018-03-31T23:04:12.853Z,12.09
2018-03-31T23:06:40.778Z,12.11
2018-03-31T23:09:08.733Z,12.11
2018-03-31T23:11:36.650Z,12.10
2018-03-31T23:14:04.636Z,11.94
2018-03-31T23:16:32.581Z,11.82
2018-03-31T23:19:00.537Z,11.99
2018-03-31T23:21:28.510Z,11.99
2018-03-31T23:23:56.434Z,11.95
2018-03-31T23:26:24.405Z,11.98
2018-03-31T23:28:52.321Z,11.95
2018-03-31T23:31:20.238Z,11.95
2018-03-31T23:33:48.186Z,11.87
2018-03-31T23:36:16.149Z,11.65
2018-03-31T23:38:43.809Z,11.75
2018-03-31T23:41:11.481Z,11.81
2018-03-31T23:43:39.146Z,11.63
2018-03-31T23:46:06.832Z,11.53
2018-03-31T23:48:34.478Z,11.68
2018-03-31T23:51:02.150Z,11.49
2018-03-31T23:53:29.826Z,11.44
2018-03-31T23:55:57.462Z,11.30
2018-03-31T23:58:25.139Z,11.33
